Time,TemperatureF,DewpointF,PressureIn,WindDirection,WindDirectionDegrees,WindSpeedMPH,WindSpeedGustMPH,Humidity,HourlyPrecipIn,Conditions,Clouds,dailyrainin,SolarRadiationWatts/m^2,SoftwareType,DateUTC
2013-04-12 00:23:00,25.0,25.0,-100.00,NE,48,10.0,15.0,100,0.00,,,0.04,0.000000,,2013-04-12 05:23:00,
2013-04-12 00:32:00,25.0,25.0,-100.00,NE,48,10.0,15.0,100,0.00,,,0.04,0.000000,,2013-04-12 05:32:00,
2013-04-12 00:42:00,25.0,25.0,-100.00,NE,48,10.0,15.0,100,0.00,,,0.04,0.000000,,2013-04-12 05:42:00,
2013-04-12 00:52:00,25.0,25.0,-100.00,NE,48,10.0,15.0,100,0.00,,,0.04,0.000000,,2013-04-12 05:52:00,
2013-04-12 01:22:00,25.0,25.0,-100.00,NE,44,11.0,14.0,100,0.00,,,0.04,0.000000,,2013-04-12 06:22:00,
2013-04-12 01:32:00,25.0,25.0,-100.00,NE,44,11.0,14.0,100,0.00,,,0.04,0.000000,,2013-04-12 06:32:00,
2013-04-12 01:42:00,25.0,25.0,-100.00,NE,44,11.0,14.0,100,0.00,,,0.04,0.000000,,2013-04-12 06:42:00,
2013-04-12 01:52:00,25.0,25.0,-100.00,NE,44,11.0,14.0,100,0.00,,,0.04,0.000000,,2013-04-12 06:52:00,
2013-04-12 02:22:00,24.0,24.0,-100.00,NE,42,9.0,13.0,100,0.00,,,0.04,0.000000,,2013-04-12 07:22:00,
2013-04-12 02:32:00,24.0,24.0,-100.00,NE,42,9.0,13.0,100,0.00,,,0.04,0.000000,,2013-04-12 07:32:00,
2013-04-12 02:42:00,24.0,24.0,-100.00,NE,42,9.0,13.0,100,0.00,,,0.04,0.000000,,2013-04-12 07:42:00,
2013-04-12 02:52:00,24.0,24.0,-100.00,NE,42,9.0,13.0,100,0.00,,,0.04,0.000000,,2013-04-12 07:52:00,
2013-04-12 03:22:00,24.0,24.0,-100.00,NNE,33,9.0,11.0,100,0.00,,,0.04,0.000000,,2013-04-12 08:22:00,
2013-04-12 03:32:00,24.0,24.0,-100.00,NNE,33,9.0,11.0,100,0.00,,,0.04,0.000000,,2013-04-12 08:32:00,
2013-04-12 03:42:00,24.0,24.0,-100.00,NNE,33,9.0,11.0,100,0.00,,,0.04,0.000000,,2013-04-12 08:42:00,
2013-04-12 03:52:00,24.0,24.0,-100.00,NNE,33,9.0,11.0,100,0.00,,,0.04,0.000000,,2013-04-12 08:52:00,
2013-04-12 04:22:00,24.0,24.0,-100.00,NE,34,7.0,11.0,100,0.00,,,0.04,0.000000,,2013-04-12 09:22:00,
2013-04-12 04:33:00,24.0,24.0,-100.00,NE,34,7.0,11.0,100,0.00,,,0.04,0.000000,,2013-04-12 09:33:00,
2013-04-12 04:43:00,24.0,24.0,-100.00,NE,34,7.0,11.0,100,0.00,,,0.04,0.000000,,2013-04-12 09:43:00,
2013-04-12 04:52:00,24.0,24.0,-100.00,NE,34,7.0,11.0,100,0.00,,,0.04,0.000000,,2013-04-12 09:52:00,
2013-04-12 05:23:00,24.0,24.0,-100.00,NNE,29,7.0,10.0,100,0.00,,,0.04,0.000000,,2013-04-12 10:23:00,
2013-04-12 05:34:00,24.0,24.0,-100.00,NNE,29,7.0,10.0,100,0.00,,,0.04,0.000000,,2013-04-12 10:34:00,
2013-04-12 05:42:00,24.0,24.0,-100.00,NNE,29,7.0,10.0,100,0.00,,,0.04,0.000000,,2013-04-12 10:42:00,
2013-04-12 05:52:00,24.0,24.0,-100.00,NNE,29,7.0,10.0,100,0.00,,,0.04,0.000000,,2013-04-12 10:52:00,
2013-04-12 06:22:00,24.0,24.0,-100.00,NE,34,8.0,10.0,100,0.00,,,0.04,0.000000,,2013-04-12 11:22:00,
2013-04-12 06:32:00,24.0,24.0,-100.00,NE,34,8.0,10.0,100,0.00,,,0.04,0.000000,,2013-04-12 11:32:00,
2013-04-12 06:42:00,24.0,24.0,-100.00,NE,34,8.0,10.0,100,0.00,,,0.04,0.000000,,2013-04-12 11:42:00,
2013-04-12 06:52:00,24.0,24.0,-100.00,NE,34,8.0,10.0,100,0.00,,,0.04,0.000000,,2013-04-12 11:52:00,
2013-04-12 07:22:00,23.0,23.0,-100.00,NNE,29,6.0,11.0,100,0.00,,,0.04,1.000000,,2013-04-12 12:22:00,
2013-04-12 07:33:00,23.0,23.0,-100.00,NNE,29,6.0,11.0,100,0.00,,,0.04,1.000000,,2013-04-12 12:33:00,
2013-04-12 07:42:00,23.0,23.0,-100.00,NNE,29,6.0,11.0,100,0.00,,,0.04,1.000000,,2013-04-12 12:42:00,
2013-04-12 07:52:00,23.0,23.0,-100.00,NNE,29,6.0,11.0,100,0.00,,,0.04,1.000000,,2013-04-12 12:52:00,
2013-04-12 08:22:00,23.0,23.0,-100.00,NNE,24,6.0,9.0,100,0.00,,,-99.99,39.000000,,2013-04-12 13:22:00,
2013-04-12 08:32:00,23.0,23.0,-100.00,NNE,24,6.0,9.0,100,0.00,,,-99.99,39.000000,,2013-04-12 13:32:00,
2013-04-12 08:42:00,23.0,23.0,-100.00,NNE,24,6.0,9.0,100,0.00,,,-99.99,39.000000,,2013-04-12 13:42:00,
2013-04-12 08:52:00,23.0,23.0,-100.00,NNE,24,6.0,9.0,100,0.00,,,-99.99,39.000000,,2013-04-12 13:52:00,
2013-04-12 09:23:00,24.0,24.0,-100.00,NNE,22,6.0,9.0,100,0.00,,,0.04,117.000000,,2013-04-12 14:23:00,
2013-04-12 09:33:00,24.0,24.0,-100.00,NNE,22,6.0,9.0,100,0.00,,,0.04,117.000000,,2013-04-12 14:33:00,
2013-04-12 09:42:00,24.0,24.0,-100.00,NNE,22,6.0,9.0,100,0.00,,,0.04,117.000000,,2013-04-12 14:42:00,
2013-04-12 09:53:00,24.0,24.0,-100.00,NNE,22,6.0,9.0,100,0.00,,,0.04,117.000000,,2013-04-12 14:53:00,
2013-04-12 10:22:00,25.0,25.0,-100.00,North,6,4.0,10.0,100,0.00,,,-99.99,245.000000,,2013-04-12 15:22:00,
2013-04-12 10:33:00,25.0,25.0,-100.00,North,6,4.0,10.0,100,0.00,,,-99.99,245.000000,,2013-04-12 15:33:00,
2013-04-12 10:43:00,25.0,25.0,-100.00,North,6,4.0,10.0,100,0.00,,,-99.99,245.000000,,2013-04-12 15:43:00,
2013-04-12 10:53:00,25.0,25.0,-100.00,North,6,4.0,10.0,100,0.00,,,-99.99,245.000000,,2013-04-12 15:53:00,
2013-04-12 11:23:00,26.0,26.0,-100.00,North,356,6.0,10.0,100,0.00,,,-99.99,353.000000,,2013-04-12 16:23:00,
2013-04-12 11:33:00,26.0,26.0,-100.00,North,356,6.0,10.0,100,0.00,,,-99.99,353.000000,,2013-04-12 16:33:00,
2013-04-12 11:42:00,26.0,26.0,-100.00,North,356,6.0,10.0,100,0.00,,,-99.99,353.000000,,2013-04-12 16:42:00,
2013-04-12 11:52:00,26.0,26.0,-100.00,North,356,6.0,10.0,100,0.00,,,-99.99,353.000000,,2013-04-12 16:52:00,
2013-04-12 12:23:00,27.0,27.0,-100.00,North,1,7.0,11.0,100,0.00,,,0.04,491.000000,,2013-04-12 17:23:00,
2013-04-12 12:33:00,27.0,27.0,-100.00,North,1,7.0,11.0,100,0.00,,,0.04,491.000000,,2013-04-12 17:33:00,
2013-04-12 12:45:00,27.0,27.0,-100.00,North,1,7.0,11.0,100,0.00,,,0.04,491.000000,,2013-04-12 17:45:00,
2013-04-12 12:58:00,27.0,27.0,-100.00,North,1,7.0,11.0,100,0.00,,,0.04,491.000000,,2013-04-12 17:58:00,
2013-04-12 14:27:00,28.0,28.0,-100.00,North,1,8.0,14.0,100,0.01,,,0.08,711.000000,,2013-04-12 19:27:00,
2013-04-12 14:32:00,28.0,28.0,-100.00,North,1,8.0,14.0,100,0.01,,,0.08,711.000000,,2013-04-12 19:32:00,
2013-04-12 14:43:00,28.0,28.0,-100.00,North,1,8.0,14.0,100,0.01,,,0.08,711.000000,,2013-04-12 19:43:00,
2013-04-12 14:52:00,28.0,28.0,-100.00,North,1,8.0,14.0,100,0.01,,,0.08,711.000000,,2013-04-12 19:52:00,
2013-04-12 15:22:00,29.0,29.0,-100.00,North,353,12.0,16.0,100,0.00,,,0.06,949.000000,,2013-04-12 20:22:00,
2013-04-12 15:32:00,29.0,29.0,-100.00,North,353,12.0,16.0,100,0.00,,,0.06,949.000000,,2013-04-12 20:32:00,
2013-04-12 15:42:00,29.0,29.0,-100.00,North,353,12.0,16.0,100,0.00,,,0.06,949.000000,,2013-04-12 20:42:00,
2013-04-12 15:52:00,29.0,29.0,-100.00,North,353,12.0,16.0,100,0.00,,,0.06,949.000000,,2013-04-12 20:52:00,
2013-04-12 16:22:00,27.0,27.0,-100.00,North,356,12.0,18.0,100,0.00,,,0.04,662.000000,,2013-04-12 21:22:00,
2013-04-12 16:33:00,27.0,27.0,-100.00,North,356,12.0,18.0,100,0.00,,,0.04,662.000000,,2013-04-12 21:33:00,
2013-04-12 16:43:00,27.0,27.0,-100.00,North,356,12.0,18.0,100,0.00,,,0.04,662.000000,,2013-04-12 21:43:00,
2013-04-12 16:52:00,27.0,27.0,-100.00,North,356,12.0,18.0,100,0.00,,,0.04,662.000000,,2013-04-12 21:52:00,
2013-04-12 17:22:00,26.0,26.0,-100.00,North,4,8.0,17.0,100,0.00,,,0.04,386.000000,,2013-04-12 22:22:00,
2013-04-12 17:32:00,26.0,26.0,-100.00,North,4,8.0,17.0,100,0.00,,,0.04,386.000000,,2013-04-12 22:32:00,
2013-04-12 17:42:00,26.0,26.0,-100.00,North,4,8.0,17.0,100,0.00,,,0.04,386.000000,,2013-04-12 22:42:00,
2013-04-12 17:52:00,26.0,26.0,-100.00,North,4,8.0,17.0,100,0.00,,,0.04,386.000000,,2013-04-12 22:52:00,
2013-04-12 18:22:00,26.0,26.0,-100.00,North,354,12.0,15.0,100,0.00,,,0.04,310.000000,,2013-04-12 23:22:00,
2013-04-12 18:32:00,26.0,26.0,-100.00,North,354,12.0,15.0,100,0.00,,,0.04,310.000000,,2013-04-12 23:32:00,
2013-04-12 18:42:00,26.0,26.0,-100.00,North,354,12.0,15.0,100,0.00,,,0.04,310.000000,,2013-04-12 23:42:00,
2013-04-12 18:52:00,26.0,26.0,-100.00,North,354,12.0,15.0,100,0.00,,,0.04,310.000000,,2013-04-12 23:52:00,
2013-04-12 19:22:00,26.0,26.0,-100.00,North,349,9.0,15.0,100,0.00,,,0.04,152.000000,,2013-04-13 00:22:00,
2013-04-12 19:32:00,26.0,26.0,-100.00,North,349,9.0,15.0,100,0.00,,,0.04,152.000000,,2013-04-13 00:32:00,
2013-04-12 19:42:00,26.0,26.0,-100.00,North,349,9.0,15.0,100,0.00,,,0.04,152.000000,,2013-04-13 00:42:00,
2013-04-12 19:52:00,26.0,26.0,-100.00,North,349,9.0,15.0,100,0.00,,,0.04,152.000000,,2013-04-13 00:52:00,
2013-04-12 20:22:00,26.0,26.0,-100.00,NNW,332,10.0,13.0,100,0.00,,,0.04,93.000000,,2013-04-13 01:22:00,
2013-04-12 20:32:00,26.0,26.0,-100.00,NNW,332,10.0,13.0,100,0.00,,,0.04,93.000000,,2013-04-13 01:32:00,
2013-04-12 20:42:00,26.0,26.0,-100.00,NNW,332,10.0,13.0,100,0.00,,,0.04,93.000000,,2013-04-13 01:42:00,
2013-04-12 20:52:00,26.0,26.0,-100.00,NNW,332,10.0,13.0,100,0.00,,,0.04,93.000000,,2013-04-13 01:52:00,
2013-04-12 21:22:00,26.0,26.0,-100.00,NW,325,10.0,13.0,100,0.00,,,0.04,2.000000,,2013-04-13 02:22:00,
2013-04-12 21:32:00,26.0,26.0,-100.00,NW,325,10.0,13.0,100,0.00,,,0.04,2.000000,,2013-04-13 02:32:00,
2013-04-12 21:42:00,26.0,26.0,-100.00,NW,325,10.0,13.0,100,0.00,,,0.04,2.000000,,2013-04-13 02:42:00,
2013-04-12 21:52:00,26.0,26.0,-100.00,NW,325,10.0,13.0,100,0.00,,,0.04,2.000000,,2013-04-13 02:52:00,
2013-04-12 22:23:00,25.0,25.0,-100.00,NNW,334,11.0,14.0,100,0.00,,,0.04,0.000000,,2013-04-13 03:23:00,
2013-04-12 22:33:00,25.0,25.0,-100.00,NNW,334,11.0,14.0,100,0.00,,,0.04,0.000000,,2013-04-13 03:33:00,
2013-04-12 22:42:00,25.0,25.0,-100.00,NNW,334,11.0,14.0,100,0.00,,,0.04,0.000000,,2013-04-13 03:42:00,
2013-04-12 22:53:00,25.0,25.0,-100.00,NNW,334,11.0,14.0,100,0.00,,,0.04,0.000000,,2013-04-13 03:53:00,
2013-04-12 23:23:00,25.0,25.0,-100.00,NNW,329,8.0,12.0,100,0.00,,,0.04,0.000000,,2013-04-13 04:23:00,
2013-04-12 23:33:00,25.0,25.0,-100.00,NNW,329,8.0,12.0,100,0.00,,,0.04,0.000000,,2013-04-13 04:33:00,
2013-04-12 23:42:00,25.0,25.0,-100.00,NNW,329,8.0,12.0,100,0.00,,,0.04,0.000000,,2013-04-13 04:42:00,
2013-04-12 23:53:00,25.0,25.0,-100.00,NNW,329,8.0,12.0,100,0.00,,,0.04,0.000000,,2013-04-13 04:53:00,